createdAt,value
2019-05-23T00:01:58.219Z,11.40
2019-05-23T00:04:47.449Z,11.40
2019-05-23T00:07:33.179Z,11.40
2019-05-23T00:10:24.446Z,11.40
2019-05-23T00:13:00.125Z,11.50
2019-05-23T00:15:35.419Z,11.40
2019-05-23T00:18:05.441Z,11.30
2019-05-23T00:20:33.474Z,11.20
2019-05-23T00:23:02.383Z,11.10
2019-05-23T00:25:32.551Z,11.10
2019-05-23T00:28:01.200Z,11.10
2019-05-23T00:30:46.801Z,11.00
2019-05-23T00:33:18.137Z,11.00
2019-05-23T00:35:47.362Z,10.90
2019-05-23T00:38:16.507Z,10.90
2019-05-23T00:40:46.055Z,10.90
2019-05-23T00:43:15.433Z,11.00
2019-05-23T00:45:43.754Z,11.10
2019-05-23T00:48:12.866Z,11.10
2019-05-23T00:50:40.439Z,11.00
2019-05-23T00:53:11.411Z,10.90
2019-05-23T00:55:40.613Z,10.80
2019-05-23T00:58:09.172Z,10.80
2019-05-23T01:00:38.687Z,10.90
2019-05-23T01:03:05.916Z,10.80
2019-05-23T01:05:36.495Z,10.80
2019-05-23T01:08:04.031Z,10.70
2019-05-23T01:10:34.387Z,10.60
2019-05-23T01:13:03.622Z,10.50
2019-05-23T01:15:32.350Z,10.40
2019-05-23T01:18:00.343Z,10.40
2019-05-23T01:20:34.422Z,10.40
2019-05-23T01:23:02.040Z,10.40
2019-05-23T01:25:32.729Z,10.40
2019-05-23T01:28:01.376Z,10.40
2019-05-23T01:30:35.531Z,10.40
2019-05-23T01:33:03.916Z,10.30
2019-05-23T01:35:32.555Z,10.30
2019-05-23T01:38:03.999Z,10.30
2019-05-23T01:40:30.399Z,10.30
2019-05-23T01:42:59.454Z,10.30
2019-05-23T01:45:26.796Z,10.20
2019-05-23T01:47:57.156Z,10.20
2019-05-23T01:50:25.780Z,10.20
2019-05-23T01:52:53.580Z,10.20
2019-05-23T01:55:21.382Z,10.30
2019-05-23T01:57:49.327Z,10.30
2019-05-23T02:00:18.335Z,10.30
2019-05-23T02:02:48.104Z,10.30
2019-05-23T02:05:17.955Z,10.20
2019-05-23T02:07:45.899Z,10.10
2019-05-23T02:10:15.543Z,10.10
2019-05-23T02:12:43.030Z,10.10
2019-05-23T02:15:11.388Z,10.20
2019-05-23T02:17:40.921Z,10.20
2019-05-23T02:20:11.163Z,10.10
2019-05-23T02:22:39.478Z,10.10
2019-05-23T02:25:07.541Z,10.10
2019-05-23T02:27:35.274Z,10.10
2019-05-23T02:30:03.770Z,10.10
2019-05-23T02:32:33.603Z,10.00
2019-05-23T02:35:02.820Z,10.00
2019-05-23T02:37:48.195Z,10.00
2019-05-23T02:40:23.471Z,10.00
2019-05-23T02:42:54.917Z,10.10
2019-05-23T02:45:29.845Z,10.00
2019-05-23T02:47:58.577Z,10.00
2019-05-23T02:50:35.349Z,9.90
2019-05-23T02:53:05.150Z,9.90
2019-05-23T02:55:36.843Z,9.90
2019-05-23T02:58:40.875Z,9.80
2019-05-23T03:01:33.412Z,9.80
2019-05-23T03:04:07.616Z,9.70
2019-05-23T03:06:37.415Z,9.60
2019-05-23T03:09:06.930Z,9.60
2019-05-23T03:11:38.850Z,9.60
2019-05-23T03:14:09.471Z,9.60
2019-05-23T03:16:39.574Z,9.70
2019-05-23T03:19:16.316Z,9.70
2019-05-23T03:21:45.224Z,9.60
2019-05-23T03:24:13.164Z,9.50
2019-05-23T03:27:12.796Z,9.40
2019-05-23T03:29:40.411Z,9.40
2019-05-23T03:32:38.024Z,9.30
2019-05-23T03:35:15.973Z,9.50
2019-05-23T03:37:43.295Z,9.50
2019-05-23T03:40:11.169Z,9.50
2019-05-23T03:42:39.919Z,9.50
2019-05-23T03:45:10.329Z,9.60
2019-05-23T03:47:38.765Z,9.50
2019-05-23T03:50:06.722Z,9.50
2019-05-23T03:52:34.404Z,9.60
2019-05-23T03:55:01.630Z,9.70
2019-05-23T03:57:33.896Z,9.60
2019-05-23T04:00:01.436Z,9.60
2019-05-23T04:02:31.510Z,9.60
2019-05-23T04:04:58.815Z,9.50
2019-05-23T04:07:26.385Z,9.50
2019-05-23T04:09:54.667Z,9.50
2019-05-23T04:12:22.384Z,9.50
2019-05-23T04:14:52.034Z,9.50
2019-05-23T04:17:19.749Z,9.60
2019-05-23T04:19:47.767Z,9.60
2019-05-23T04:22:16.864Z,9.70
2019-05-23T04:24:44.743Z,9.80
2019-05-23T04:30:11.210Z,9.90
2019-05-23T04:32:39.578Z,9.90
2019-05-23T04:35:07.275Z,10.10
2019-05-23T04:37:36.008Z,10.20
2019-05-23T04:40:04.996Z,10.20
2019-05-23T04:42:33.041Z,10.20
2019-05-23T04:45:00.772Z,10.10
2019-05-23T04:47:28.667Z,10.20
2019-05-23T04:49:57.526Z,10.30
2019-05-23T04:52:25.411Z,10.20
2019-05-23T04:54:54.335Z,10.20
2019-05-23T04:57:21.787Z,10.20
2019-05-23T04:59:49.512Z,10.40
2019-05-23T05:02:26.151Z,10.70
2019-05-23T05:04:50.523Z,10.70
2019-05-23T05:07:18.217Z,10.80
2019-05-23T05:09:47.717Z,10.70
2019-05-23T05:12:17.344Z,10.70
2019-05-23T05:14:45.775Z,10.70
2019-05-23T05:17:13.678Z,10.60
2019-05-23T05:19:41.289Z,10.80
2019-05-23T05:22:09.317Z,10.90
2019-05-23T05:24:40.290Z,11.10
2019-05-23T05:27:07.442Z,11.30
2019-05-23T05:29:34.652Z,11.10
2019-05-23T05:32:04.185Z,11.10
2019-05-23T05:34:31.661Z,11.10
2019-05-23T05:37:00.583Z,11.10
2019-05-23T05:39:27.927Z,11.00
2019-05-23T05:41:55.064Z,11.10
2019-05-23T05:44:25.468Z,11.10
2019-05-23T05:46:52.775Z,11.20
2019-05-23T05:49:21.611Z,11.20
2019-05-23T05:51:48.711Z,11.40
2019-05-23T05:54:15.901Z,11.40
2019-05-23T05:56:43.991Z,11.60
2019-05-23T05:59:12.290Z,11.70
2019-05-23T06:01:40.208Z,11.80
2019-05-23T06:04:09.681Z,11.90
2019-05-23T06:06:42.852Z,12.00
2019-05-23T06:09:14.730Z,12.10
2019-05-23T06:11:42.853Z,12.10
2019-05-23T06:14:11.000Z,12.20
2019-05-23T06:16:39.107Z,12.20
2019-05-23T06:19:08.890Z,12.20
2019-05-23T06:21:35.872Z,12.30
2019-05-23T06:24:04.939Z,12.40
2019-05-23T06:26:32.515Z,12.40
2019-05-23T06:29:00.216Z,12.40
2019-05-23T06:31:28.284Z,12.50
2019-05-23T06:33:56.701Z,12.60
2019-05-23T06:36:25.107Z,12.60
2019-05-23T06:38:52.879Z,12.70
2019-05-23T06:41:23.351Z,12.70
2019-05-23T06:43:50.700Z,12.80
2019-05-23T06:46:20.821Z,12.90
2019-05-23T06:48:48.406Z,13.10
2019-05-23T06:51:16.627Z,13.00
2019-05-23T06:53:44.888Z,13.00
2019-05-23T06:56:12.778Z,13.10
2019-05-23T06:58:41.884Z,13.10
2019-05-23T07:01:09.159Z,13.30
2019-05-23T07:03:42.394Z,13.40
2019-05-23T07:06:07.412Z,13.40
2019-05-23T07:08:34.894Z,13.50
2019-05-23T07:11:04.195Z,13.70
2019-05-23T07:13:34.133Z,13.70
2019-05-23T07:16:03.682Z,13.80
2019-05-23T07:18:31.133Z,13.90
2019-05-23T07:20:59.378Z,14.00
2019-05-23T07:23:27.265Z,14.10
2019-05-23T07:25:55.047Z,14.20
2019-05-23T07:28:25.315Z,14.30
2019-05-23T07:30:53.888Z,14.40
2019-05-23T07:33:59.854Z,14.50
2019-05-23T07:36:11.124Z,14.70
2019-05-23T07:38:38.311Z,15.00
2019-05-23T07:41:06.731Z,15.20
2019-05-23T07:43:34.894Z,15.50
2019-05-23T07:46:03.043Z,15.70
2019-05-23T07:48:30.607Z,15.90
2019-05-23T07:50:57.730Z,16.00
2019-05-23T07:53:38.843Z,16.10
2019-05-23T07:56:08.102Z,16.20
2019-05-23T07:58:35.216Z,16.30
2019-05-23T08:01:05.041Z,16.50
2019-05-23T08:03:33.621Z,16.70
2019-05-23T08:06:01.636Z,16.80
2019-05-23T08:08:30.602Z,16.80
2019-05-23T08:10:58.327Z,16.80
2019-05-23T08:13:30.462Z,17.10
2019-05-23T08:15:58.066Z,17.20
2019-05-23T08:18:26.948Z,17.30
2019-05-23T08:20:54.345Z,17.30
2019-05-23T08:23:41.458Z,17.40
2019-05-23T08:26:12.263Z,17.50
2019-05-23T08:29:00.488Z,17.60
2019-05-23T08:31:11.617Z,17.70
2019-05-23T08:33:40.438Z,17.90
2019-05-23T08:36:09.834Z,18.00
2019-05-23T08:38:37.574Z,18.20
2019-05-23T08:41:05.825Z,18.30
2019-05-23T08:43:35.049Z,18.30
2019-05-23T08:46:02.360Z,18.30
2019-05-23T08:48:30.619Z,18.40
2019-05-23T08:50:57.948Z,18.50
2019-05-23T08:53:25.308Z,18.70
2019-05-23T08:55:53.454Z,18.70
2019-05-23T08:58:20.823Z,18.80
2019-05-23T09:00:47.928Z,19.00
2019-05-23T09:03:17.325Z,19.10
2019-05-23T09:05:46.950Z,19.20
2019-05-23T09:08:16.866Z,19.50
2019-05-23T09:10:44.140Z,19.80
2019-05-23T09:13:13.298Z,20.00
2019-05-23T09:15:41.433Z,20.20
2019-05-23T09:18:12.058Z,20.20
2019-05-23T09:20:39.551Z,20.30
2019-05-23T09:23:07.106Z,20.50
2019-05-23T09:25:35.656Z,20.50
2019-05-23T09:28:03.369Z,20.60
2019-05-23T09:30:32.977Z,20.80
2019-05-23T09:33:01.067Z,21.00
2019-05-23T09:35:28.524Z,21.20
2019-05-23T09:37:56.286Z,21.40
2019-05-23T09:40:23.721Z,21.70
2019-05-23T09:42:50.847Z,22.10
2019-05-23T09:45:19.089Z,22.40
2019-05-23T09:47:50.725Z,22.70
2019-05-23T09:50:20.992Z,23.20
2019-05-23T09:52:48.533Z,23.60
2019-05-23T09:55:18.694Z,23.80
2019-05-23T09:57:46.031Z,23.70
2019-05-23T10:00:16.853Z,23.90
2019-05-23T10:02:44.408Z,24.10
2019-05-23T10:05:13.057Z,24.30
2019-05-23T10:07:40.353Z,24.40
2019-05-23T10:10:08.565Z,24.50
2019-05-23T10:12:36.871Z,24.60
2019-05-23T10:15:05.458Z,24.60
2019-05-23T10:17:32.816Z,24.50
2019-05-23T10:20:00.868Z,24.50
2019-05-23T10:22:28.197Z,24.20
2019-05-23T10:24:55.890Z,24.10
2019-05-23T10:27:24.064Z,24.30
2019-05-23T10:29:51.569Z,24.40
2019-05-23T10:32:21.816Z,24.20
2019-05-23T10:34:49.655Z,24.20
2019-05-23T10:37:18.809Z,24.40
2019-05-23T10:39:51.935Z,24.80
2019-05-23T10:42:20.527Z,25.20
2019-05-23T10:44:48.238Z,25.40
2019-05-23T10:47:15.749Z,25.40
2019-05-23T10:49:44.000Z,25.30
2019-05-23T10:52:11.090Z,25.40
2019-05-23T10:54:38.710Z,25.20
2019-05-23T10:57:06.337Z,25.20
2019-05-23T10:59:34.048Z,25.30
2019-05-23T11:02:02.619Z,25.00
2019-05-23T11:04:30.471Z,24.80
2019-05-23T11:06:58.405Z,24.80
2019-05-23T11:09:37.127Z,24.90
2019-05-23T11:11:56.485Z,24.60
2019-05-23T11:14:26.264Z,24.50
2019-05-23T11:16:53.619Z,24.70
2019-05-23T11:19:21.266Z,24.60
2019-05-23T11:21:48.875Z,24.50
2019-05-23T11:24:17.740Z,24.20
2019-05-23T11:26:47.457Z,23.80
2019-05-23T11:29:15.581Z,23.30
2019-05-23T11:31:44.436Z,23.30
2019-05-23T11:34:12.406Z,23.60
2019-05-23T11:36:40.428Z,23.80
2019-05-23T11:39:08.855Z,24.00
2019-05-23T11:41:36.812Z,24.20
2019-05-23T11:44:05.785Z,24.30
2019-05-23T11:46:34.770Z,24.20
2019-05-23T11:49:05.394Z,24.10
2019-05-23T11:51:33.603Z,24.10
2019-05-23T11:54:07.720Z,24.20
2019-05-23T11:56:31.793Z,24.20
2019-05-23T11:59:01.636Z,24.00
2019-05-23T12:01:56.871Z,23.50
2019-05-23T12:04:28.337Z,23.00
2019-05-23T12:07:21.019Z,22.40
2019-05-23T12:09:51.002Z,21.90
2019-05-23T12:12:19.478Z,21.60
2019-05-23T12:14:49.678Z,21.50
2019-05-23T12:17:18.678Z,21.70
2019-05-23T12:19:46.699Z,22.10
2019-05-23T12:22:15.284Z,22.50
2019-05-23T12:24:42.388Z,22.60
2019-05-23T12:27:12.014Z,22.60
2019-05-23T12:29:39.193Z,22.90
2019-05-23T12:32:08.384Z,23.10
2019-05-23T12:34:35.594Z,23.00
2019-05-23T12:37:18.409Z,22.70
2019-05-23T12:39:33.816Z,22.50
2019-05-23T12:42:00.959Z,22.30
2019-05-23T12:44:28.842Z,21.90
2019-05-23T12:46:56.932Z,22.10
2019-05-23T12:49:44.122Z,22.40
2019-05-23T12:52:14.934Z,22.70
2019-05-23T12:54:42.631Z,23.20
2019-05-23T12:57:10.580Z,23.40
2019-05-23T12:59:39.037Z,23.50
2019-05-23T13:02:14.105Z,23.60
2019-05-23T13:04:41.912Z,23.80
2019-05-23T13:07:09.371Z,23.80
2019-05-23T13:09:37.509Z,23.90
2019-05-23T13:12:04.809Z,23.80
2019-05-23T13:14:31.838Z,23.80
2019-05-23T13:17:01.221Z,23.60
2019-05-23T13:19:28.421Z,23.50
2019-05-23T13:21:57.079Z,23.30
2019-05-23T13:24:24.569Z,23.40
2019-05-23T13:26:52.109Z,23.40
2019-05-23T13:29:23.880Z,23.40
2019-05-23T13:31:49.145Z,23.30
2019-05-23T13:34:17.207Z,22.90
2019-05-23T13:36:44.503Z,22.50
2019-05-23T13:39:12.435Z,22.20
2019-05-23T13:41:40.434Z,22.00
2019-05-23T13:44:07.803Z,21.80
2019-05-23T13:46:39.873Z,21.70
2019-05-23T13:49:07.668Z,21.60
2019-05-23T13:51:35.162Z,21.40
2019-05-23T13:54:03.832Z,21.30
2019-05-23T13:56:31.685Z,21.20
2019-05-23T13:59:02.289Z,21.10
2019-05-23T14:01:30.817Z,21.10
2019-05-23T14:03:58.983Z,21.10
2019-05-23T14:06:26.971Z,21.10
2019-05-23T14:08:54.604Z,21.10
2019-05-23T14:11:24.226Z,21.00
2019-05-23T14:13:59.753Z,21.10
2019-05-23T14:16:22.169Z,21.60
2019-05-23T14:18:49.895Z,21.80
2019-05-23T14:21:18.383Z,22.00
2019-05-23T14:23:46.706Z,22.10
2019-05-23T14:26:15.675Z,22.20
2019-05-23T14:28:44.579Z,22.40
2019-05-23T14:31:13.927Z,22.50
2019-05-23T14:33:51.757Z,22.60
2019-05-23T14:36:25.365Z,22.60
2019-05-23T14:38:53.627Z,22.70
2019-05-23T14:41:22.893Z,22.70
2019-05-23T14:43:51.501Z,22.50
2019-05-23T14:46:19.086Z,22.10
2019-05-23T14:48:53.793Z,22.00
2019-05-23T14:51:39.865Z,21.80
2019-05-23T14:54:15.298Z,21.80
2019-05-23T14:56:43.577Z,21.60
2019-05-23T14:59:10.892Z,21.70
2019-05-23T15:01:40.621Z,21.80
2019-05-23T15:04:08.168Z,21.90
2019-05-23T15:06:40.097Z,21.90
2019-05-23T15:09:08.468Z,22.00
2019-05-23T15:11:40.033Z,22.10
2019-05-23T15:14:07.281Z,22.10
2019-05-23T15:16:34.790Z,22.00
2019-05-23T15:19:05.608Z,21.70
2019-05-23T15:21:32.980Z,21.80
2019-05-23T15:24:04.567Z,21.90
2019-05-23T15:26:32.371Z,21.80
2019-05-23T15:29:00.079Z,21.80
2019-05-23T15:31:29.178Z,21.80
2019-05-23T15:33:56.269Z,21.70
2019-05-23T15:36:28.402Z,21.50
2019-05-23T15:39:09.152Z,21.50
2019-05-23T15:41:29.243Z,21.50
2019-05-23T15:43:57.585Z,21.50
2019-05-23T15:46:24.713Z,21.50
2019-05-23T15:48:52.881Z,21.50
2019-05-23T15:51:24.418Z,21.50
2019-05-23T15:54:02.513Z,21.50
2019-05-23T15:56:45.706Z,21.50
2019-05-23T15:59:25.130Z,21.40
2019-05-23T16:02:16.915Z,21.30
2019-05-23T16:04:44.484Z,21.20
2019-05-23T16:07:17.334Z,21.30
2019-05-23T16:09:45.053Z,21.40
2019-05-23T16:12:12.684Z,21.30
2019-05-23T16:14:42.431Z,21.40
2019-05-23T16:17:11.320Z,21.40
2019-05-23T16:19:42.694Z,21.30
2019-05-23T16:22:10.776Z,21.40
2019-05-23T16:24:43.117Z,21.40
2019-05-23T16:27:11.167Z,21.30
2019-05-23T16:29:50.492Z,21.20
2019-05-23T16:32:17.590Z,21.00
2019-05-23T16:34:46.491Z,20.90
2019-05-23T16:37:15.134Z,20.80
2019-05-23T16:39:49.855Z,20.70
2019-05-23T16:42:17.061Z,20.60
2019-05-23T16:44:48.992Z,20.70
2019-05-23T16:47:16.106Z,20.60
2019-05-23T16:49:43.513Z,20.60
2019-05-23T16:52:11.750Z,20.50
2019-05-23T16:54:42.676Z,20.50
2019-05-23T16:57:22.734Z,20.30
2019-05-23T17:00:13.562Z,20.20
2019-05-23T17:02:43.760Z,20.20
2019-05-23T17:05:25.764Z,20.20
2019-05-23T17:08:11.927Z,20.30
2019-05-23T17:10:54.524Z,20.30
2019-05-23T17:13:35.737Z,20.30
2019-05-23T17:16:09.177Z,20.20
2019-05-23T17:18:58.312Z,20.20
2019-05-23T17:21:55.771Z,20.00
2019-05-23T17:24:40.154Z,19.90
2019-05-23T17:27:23.987Z,19.80
2019-05-23T17:29:54.788Z,19.80
2019-05-23T17:32:27.055Z,19.80
2019-05-23T17:34:54.871Z,19.70
2019-05-23T17:37:25.776Z,19.60
2019-05-23T17:39:53.889Z,19.60
2019-05-23T17:42:25.362Z,19.50
2019-05-23T17:44:53.805Z,19.50
2019-05-23T17:47:28.055Z,19.40
2019-05-23T17:49:55.815Z,19.40
2019-05-23T17:52:28.028Z,19.30
2019-05-23T17:54:55.404Z,19.30
2019-05-23T17:57:25.402Z,19.20
2019-05-23T17:59:53.119Z,19.10
2019-05-23T18:02:21.165Z,19.10
2019-05-23T18:04:52.385Z,19.00
2019-05-23T18:07:20.358Z,19.00
2019-05-23T18:09:52.418Z,19.00
2019-05-23T18:12:20.424Z,18.90
2019-05-23T18:14:49.477Z,18.90
2019-05-23T18:17:19.455Z,18.80
2019-05-23T18:19:46.507Z,18.80
2019-05-23T18:22:17.708Z,18.70
2019-05-23T18:24:45.813Z,18.60
2019-05-23T18:27:19.258Z,18.60
2019-05-23T18:29:47.345Z,18.40
2019-05-23T18:32:21.928Z,18.30
2019-05-23T18:34:49.339Z,18.30
2019-05-23T18:37:20.435Z,18.20
2019-05-23T18:39:47.427Z,18.10
2019-05-23T18:42:14.839Z,18.00
2019-05-23T18:44:43.532Z,18.10
2019-05-23T18:47:16.648Z,18.00
2019-05-23T18:49:46.664Z,17.90
2019-05-23T18:52:13.968Z,17.90
2019-05-23T18:54:45.758Z,17.80
2019-05-23T18:57:13.160Z,17.80
2019-05-23T18:59:40.287Z,17.70
2019-05-23T19:02:09.012Z,17.60
2019-05-23T19:04:37.071Z,17.60
2019-05-23T19:07:09.163Z,17.50
2019-05-23T19:09:37.438Z,17.50
2019-05-23T19:12:08.922Z,17.40
2019-05-23T19:14:37.014Z,17.30
2019-05-23T19:17:05.884Z,17.30
2019-05-23T19:19:33.172Z,17.30
2019-05-23T19:22:03.328Z,17.20
2019-05-23T19:24:31.322Z,17.10
2019-05-23T19:27:01.623Z,17.10
2019-05-23T19:29:29.831Z,17.00
2019-05-23T19:31:58.327Z,17.00
2019-05-23T19:34:26.346Z,17.10
2019-05-23T19:36:53.795Z,17.00
2019-05-23T19:39:24.217Z,16.90
2019-05-23T19:41:51.361Z,16.90
2019-05-23T19:44:19.616Z,16.80
2019-05-23T19:46:47.500Z,16.90
2019-05-23T19:49:15.766Z,16.80
2019-05-23T19:51:44.855Z,16.70
2019-05-23T19:54:12.226Z,16.70
2019-05-23T19:56:42.124Z,16.70
2019-05-23T19:59:10.078Z,16.70
2019-05-23T20:02:00.988Z,16.70
2019-05-23T20:04:31.301Z,16.70
2019-05-23T20:06:58.526Z,16.60
2019-05-23T20:09:28.614Z,16.60
2019-05-23T20:11:57.007Z,16.60
2019-05-23T20:14:25.441Z,16.50
2019-05-23T20:16:52.779Z,16.60
2019-05-23T20:19:19.899Z,16.50
2019-05-23T20:21:48.215Z,16.50
2019-05-23T20:24:15.322Z,16.40
2019-05-23T20:26:42.934Z,16.40
2019-05-23T20:29:10.248Z,16.40
2019-05-23T20:31:37.257Z,16.40
2019-05-23T20:34:09.448Z,16.30
2019-05-23T20:36:37.595Z,16.30
2019-05-23T20:39:06.997Z,16.30
2019-05-23T20:41:35.341Z,16.20
2019-05-23T20:44:02.752Z,16.20
2019-05-23T20:46:30.287Z,16.20
2019-05-23T20:48:57.775Z,16.10
2019-05-23T20:51:26.319Z,16.10
2019-05-23T20:53:54.073Z,16.10
2019-05-23T20:56:21.335Z,16.00
2019-05-23T20:58:51.576Z,16.00
2019-05-23T21:01:22.814Z,15.90
2019-05-23T21:03:53.414Z,15.90
2019-05-23T21:06:21.235Z,15.90
2019-05-23T21:08:49.579Z,15.90
2019-05-23T21:11:16.641Z,15.90
2019-05-23T21:13:44.002Z,15.90
2019-05-23T21:16:12.534Z,15.80
2019-05-23T21:18:39.733Z,16.00
2019-05-23T21:21:07.073Z,16.00
2019-05-23T21:23:35.682Z,15.90
2019-05-23T21:26:05.516Z,15.80
2019-05-23T21:28:33.835Z,15.70
2019-05-23T21:31:01.588Z,15.70
2019-05-23T21:33:30.495Z,15.70
2019-05-23T21:35:59.039Z,15.50
2019-05-23T21:38:26.941Z,15.50
2019-05-23T21:40:55.563Z,15.40
2019-05-23T21:43:23.117Z,15.30
2019-05-23T21:45:52.607Z,15.20
2019-05-23T21:48:19.981Z,15.10
2019-05-23T21:50:48.003Z,15.10
2019-05-23T21:53:16.135Z,15.10
2019-05-23T21:55:43.611Z,15.00
2019-05-23T21:58:12.862Z,15.00
2019-05-23T22:01:19.918Z,14.90
2019-05-23T22:03:50.235Z,14.90
2019-05-23T22:06:19.598Z,14.90
2019-05-23T22:08:48.275Z,14.80
2019-05-23T22:11:16.831Z,14.70
2019-05-23T22:13:44.379Z,14.70
2019-05-23T22:16:12.278Z,14.60
2019-05-23T22:18:39.852Z,14.60
2019-05-23T22:21:07.648Z,14.60
2019-05-23T22:23:35.850Z,14.60
2019-05-23T22:26:03.476Z,14.50
2019-05-23T22:28:31.579Z,14.50
2019-05-23T22:30:59.291Z,14.60
2019-05-23T22:33:29.291Z,14.60
2019-05-23T22:35:59.713Z,14.50
2019-05-23T22:38:27.528Z,14.40
2019-05-23T22:40:55.768Z,14.40
2019-05-23T22:43:23.498Z,14.40
2019-05-23T22:45:51.001Z,14.30
2019-05-23T22:48:19.883Z,14.20
2019-05-23T22:50:48.746Z,14.10
2019-05-23T22:53:17.133Z,14.10
2019-05-23T22:55:44.813Z,14.00
2019-05-23T22:58:12.343Z,14.10
2019-05-23T23:00:42.571Z,14.00
2019-05-23T23:03:09.792Z,14.00
2019-05-23T23:05:38.092Z,14.00
2019-05-23T23:08:05.675Z,14.20
2019-05-23T23:10:33.053Z,14.30
2019-05-23T23:13:02.237Z,14.20
2019-05-23T23:15:30.870Z,14.30
2019-05-23T23:17:58.710Z,14.10
2019-05-23T23:20:26.354Z,14.00
2019-05-23T23:22:58.414Z,13.90
2019-05-23T23:25:30.074Z,13.80
2019-05-23T23:28:03.544Z,13.80
2019-05-23T23:30:35.240Z,13.80
2019-05-23T23:33:05.499Z,13.80
2019-05-23T23:35:37.176Z,13.70
2019-05-23T23:38:07.020Z,13.70
2019-05-23T23:40:39.535Z,13.70
2019-05-23T23:43:12.484Z,13.70
2019-05-23T23:46:00.190Z,13.70
2019-05-23T23:48:49.685Z,13.60
2019-05-23T23:51:36.253Z,13.60
2019-05-23T23:54:24.993Z,13.60
2019-05-23T23:57:15.938Z,13.50
2019-05-23T23:59:42.731Z,13.40
